Latest Weather Observations for Esperance

IDW60801

Issued at 6:34 pm WST Monday 20 February 2017 (issued every 30 minutes, with the page automatically refreshed every 10 minutes)

About weather observations | Map of weather stations | Latest weather observations for WA | Other Formats
Station Details ID: 009789 Name: ESPERANCE Lat: -33.83 Lon: 121.89 Height: 25.0 m
Data from the previous 72 hours. | See also: Recent months at Esperance
Date/Time
WST
Temp
°C
App
Temp
°C
Dew
Point
°C
Rel
Hum
%
Delta-T
°C
Wind Press
QNH
hPa
Press
MSL
hPa
Rain since
9am
mm
Dir  Spd
km/h
Gust
km/h
Spd
kts
Gust
kts
20/06:30pm 18.4 18.9 17.4 94 0.6 S 11 15 6 8 1010.2 1010.1 1.6
20/06:06pm 18.3 18.6 17.1 93 0.7 ESE 11 17 6 9 1009.6 1009.5 1.6
20/06:00pm 18.3 19.1 17.3 94 0.6 E 9 17 5 9 1009.8 1009.7 1.6
20/05:30pm 18.4 19.5 17.2 93 0.7 E 7 48 4 26 1010.7 1010.6 1.6
20/05:27pm 18.4 19.2 17.4 94 0.6 ESE 9 48 5 26 1010.7 1010.6 1.4
20/05:03pm 18.6 18.6 17.1 91 0.9 SSW 13 24 7 13 1010.3 1010.2 0.6
20/05:00pm 18.6 18.1 16.8 89 1.1 SW 15 24 8 13 1010.7 1010.6 0.4
20/04:30pm 19.5 17.2 15.8 79 2.2 SSW 22 35 12 19 1010.0 1009.9 0.0
20/04:00pm 20.6 18.3 15.6 73 3.0 SSW 22 35 12 19 1009.7 1009.6 0.0
20/03:30pm 21.3 19.4 15.8 71 3.3 SSW 20 30 11 16 1009.3 1009.2 0.0
20/03:00pm 20.9 19.1 15.9 73 3.0 SSW 20 30 11 16 1009.1 1009.0 0.0
20/02:30pm 21.9 20.4 16.3 70 3.4 SSW 19 30 10 16 1009.0 1008.9 0.0
20/02:00pm 21.6 20.1 16.7 73 3.0 SW 20 30 11 16 1009.6 1009.5 0.0
20/01:30pm 21.7 20.4 17.3 76 2.7 SW 20 30 11 16 1010.1 1010.0 0.0
20/01:00pm 22.8 21.5 16.9 69 3.6 SW 19 32 10 17 1010.4 1010.3 0.0
20/12:54pm 22.9 22.0 16.9 69 3.7 SW 17 24 9 13 1010.3 1010.2 0.0
20/12:30pm 23.9 22.2 17.3 66 4.1 SW 22 32 12 17 1010.4 1010.3 0.0
20/12:00pm 23.6 22.1 17.7 69 3.7 WSW 22 35 12 19 1010.3 1010.2 0.0
20/11:30am 24.0 22.8 17.4 66 4.1 WSW 20 28 11 15 1010.5 1010.4 0.0
20/11:00am 28.3 25.7 9.4 30 10.5 SSE 13 19 7 10 1010.4 1010.3 0.0
20/10:30am 30.3 27.7 9.5 27 11.7 NW 13 19 7 10 1010.7 1010.6 0.0
20/10:00am 27.1 26.0 12.0 39 8.7 SW 9 15 5 8 1011.2 1011.1 0.0
20/09:30am 28.3 26.8 10.7 33 10.0 W 9 15 5 8 1011.4 1011.3 0.0
20/09:00am 27.4 25.6 9.3 32 10.0 W 9 17 5 9 1011.7 1011.6 0.0
20/08:30am 25.9 22.8 9.0 34 9.2 WNW 15 24 8 13 1012.0 1011.9 0.0
20/08:00am 25.7 20.8 7.1 30 9.8 N 22 32 12 17 1010.8 1010.7 0.0
20/07:30am 24.5 18.5 7.1 32 9.1 N 28 43 15 23 1010.6 1010.5 0.0
20/07:00am 22.8 17.2 7.2 36 8.1 N 26 41 14 22 1010.9 1010.8 0.0
20/06:30am 21.5 15.2 7.4 40 7.3 N 30 43 16 23 1010.7 1010.6 0.0
20/06:00am 21.1 15.2 7.6 41 7.0 N 28 37 15 20 1010.8 1010.7 0.0
20/05:30am 20.3 15.4 8.5 46 6.2 N 24 33 13 18 1010.9 1010.8 0.0
20/05:00am 20.1 15.3 8.9 48 5.9 N 24 33 13 18 1010.8 1010.7 0.0
20/04:30am 20.0 14.2 9.3 50 5.7 N 30 39 16 21 1010.7 1010.6 0.0
20/04:00am 20.0 15.4 9.7 51 5.5 NNE 24 32 13 17 1010.7 1010.6 0.0
20/03:30am 19.4 16.1 11.0 58 4.6 NNE 19 32 10 17 1011.1 1011.0 0.0
20/03:00am 19.3 16.2 11.7 61 4.2 NNE 19 28 10 15 1011.3 1011.2 0.0
20/02:30am 19.3 15.8 12.1 63 4.0 NNE 22 33 12 18 1011.5 1011.4 0.0
20/02:00am 19.5 15.6 12.1 62 4.1 NNE 24 33 13 18 1011.8 1011.7 0.0
20/01:30am 19.7 17.2 12.4 62 4.1 NNE 17 24 9 13 1012.0 1011.9 0.0
20/01:00am 19.7 17.3 12.8 64 3.9 NNE 17 22 9 12 1012.4 1012.3 0.0
20/12:30am 19.9 16.3 13.0 64 3.9 NNE 24 35 13 19 1012.6 1012.5 0.0
20/12:00am 19.7 16.6 13.4 67 3.6 NNE 22 32 12 17 1013.1 1013.0 0.0
 
Date/Time
WST
Temp
°C
App
Temp
°C
Dew
Point
°C
Rel
Hum
%
Delta-T
°C
Wind Press
QNH
hPa
Press
MSL
hPa
Rain since
9am
mm
Dir  Spd
km/h
Gust
km/h
Spd
kts
Gust
kts
19/11:30pm 19.7 17.1 13.8 69 3.4 NNE 20 30 11 16 1013.4 1013.3 0.0
19/11:00pm 19.9 17.9 14.0 69 3.4 NE 17 24 9 13 1013.7 1013.7 0.0
19/10:30pm 20.1 18.5 13.8 67 3.6 NE 15 24 8 13 1014.6 1014.6 0.0
19/10:00pm 20.0 18.0 13.9 68 3.5 NE 17 22 9 12 1014.4 1014.4 0.0
19/09:30pm 20.2 17.9 14.0 67 3.6 NE 19 28 10 15 1014.9 1014.9 0.0
19/09:00pm 20.7 19.1 13.8 64 4.0 ENE 15 24 8 13 1015.3 1015.3 0.0
19/08:30pm 20.7 20.0 14.2 66 3.8 E 11 17 6 9 1015.2 1015.2 0.0
19/08:00pm 20.5 20.1 15.3 72 3.1 E 11 20 6 11 1015.1 1015.1 0.0
19/07:30pm 20.8 19.7 15.2 70 3.3 ESE 15 22 8 12 1015.1 1015.1 0.0
19/07:00pm 21.0 20.2 16.2 74 2.9 ESE 15 22 8 12 1015.1 1015.1 0.0
19/06:30pm 21.4 19.8 15.9 71 3.3 ESE 19 26 10 14 1015.2 1015.2 0.0
19/06:00pm 22.3 20.1 14.9 63 4.4 ESE 20 32 11 17 1015.1 1015.1 0.0
19/05:30pm 22.2 18.7 14.6 62 4.5 ESE 26 32 14 17 1015.2 1015.2 0.0
19/05:00pm 23.0 20.0 14.7 59 4.9 SE 24 33 13 18 1015.1 1015.1 0.0
19/04:30pm 23.7 20.5 14.2 55 5.6 SE 24 33 13 18 1015.2 1015.2 0.0
19/04:00pm 23.9 20.6 14.0 54 5.8 SE 24 35 13 19 1015.5 1015.4 0.0
19/03:30pm 24.7 20.9 13.6 50 6.5 SE 26 35 14 19 1015.7 1015.6 0.0
19/03:00pm 24.5 21.3 14.2 52 6.1 SE 24 33 13 18 1015.8 1015.7 0.0
19/02:30pm 25.0 21.2 13.6 49 6.7 SE 26 33 14 18 1016.0 1015.9 0.0
19/02:00pm 24.7 21.2 12.1 45 7.2 SE 22 32 12 17 1016.6 1016.5 0.0
19/01:30pm 24.5 21.5 12.7 47 6.8 SSE 20 26 11 14 1016.9 1016.8 0.0
19/01:00pm 24.3 21.3 12.6 48 6.7 SE 20 26 11 14 1017.3 1017.2 0.0
19/12:30pm 26.5 24.7 10.9 37 8.8 NNE 11 20 6 11 1017.7 1017.6 0.0
19/12:00pm 27.5 24.4 8.9 31 10.2 N 15 20 8 11 1018.0 1017.9 0.0
19/11:30am 27.0 23.3 9.6 33 9.6 N 19 24 10 13 1018.4 1018.3 0.0
19/11:00am 25.7 22.0 9.4 35 8.9 N 19 30 10 16 1019.0 1018.9 0.0
19/10:30am 24.8 22.0 9.9 39 8.2 N 15 22 8 12 1019.6 1019.5 0.0
19/10:00am 23.2 20.3 9.5 41 7.4 NNE 15 24 8 13 1020.2 1020.1 0.0
19/09:30am 22.6 19.4 10.1 45 6.8 NNE 17 24 9 13 1020.5 1020.4 0.0
19/09:00am 20.4 16.6 9.7 50 5.7 NNE 20 30 11 16 1020.7 1020.6 0.0
19/08:30am 19.0 14.5 10.2 56 4.7 NNE 24 33 13 18 1021.2 1021.1 0.0
19/08:00am 17.8 13.8 10.3 61 4.0 NNE 22 30 12 16 1021.4 1021.3 0.0
19/07:30am 16.3 11.4 9.8 65 3.4 NNE 26 39 14 21 1021.6 1021.5 0.0
19/07:00am 15.3 11.1 9.9 70 2.8 NNE 22 32 12 17 1021.7 1021.6 0.0
19/06:30am 14.4 11.2 10.0 75 2.3 NNE 17 22 9 12 1021.9 1021.8 0.0
19/06:00am 13.9 10.7 9.8 76 2.1 NNE 17 22 9 12 1022.0 1021.9 0.0
19/05:30am 13.5 10.7 10.0 79 1.8 NNE 15 20 8 11 1022.0 1021.9 0.0
19/05:00am 13.4 11.0 10.1 80 1.7 NE 13 20 7 11 1022.0 1021.9 0.0
19/04:30am 12.9 10.9 10.2 84 1.4 NE 11 13 6 7 1022.0 1021.9 0.0
19/04:00am 13.1 10.7 10.2 82 1.5 NE 13 17 7 9 1022.1 1022.0 0.0
19/03:30am 13.3 10.9 10.2 81 1.6 NE 13 22 7 12 1021.9 1021.8 0.0
19/03:00am 13.1 11.2 10.4 84 1.4 ENE 11 17 6 9 1022.1 1022.0 0.0
19/02:30am 13.2 11.6 10.3 82 1.5 ENE 9 11 5 6 1022.4 1022.3 0.0
19/02:00am 13.5 11.9 10.2 80 1.7 ENE 9 13 5 7 1022.8 1022.7 0.0
19/01:30am 13.5 11.5 10.2 80 1.7 ENE 11 15 6 8 1022.7 1022.6 0.0
19/01:00am 13.8 12.2 10.1 78 1.9 ENE 9 15 5 8 1023.0 1022.9 0.0
19/12:30am 14.2 12.2 10.1 76 2.1 ENE 11 19 6 10 1023.4 1023.3 0.0
19/12:00am 14.4 12.3 9.9 74 2.3 E 11 17 6 9 1023.6 1023.5 0.0
 
Date/Time
WST
Temp
°C
App
Temp
°C
Dew
Point
°C
Rel
Hum
%
Delta-T
°C
Wind Press
QNH
hPa
Press
MSL
hPa
Rain since
9am
mm
Dir  Spd
km/h
Gust
km/h
Spd
kts
Gust
kts
18/11:30pm 14.5 12.5 10.1 75 2.3 E 11 15 6 8 1023.8 1023.7 0.0
18/11:00pm 14.8 12.4 10.0 73 2.5 E 13 19 7 10 1024.0 1023.9 0.0
18/10:30pm 15.1 12.7 10.1 72 2.6 E 13 20 7 11 1024.1 1024.0 0.0
18/10:00pm 15.5 13.2 10.3 71 2.7 E 13 19 7 10 1024.4 1024.3 0.0
18/09:30pm 16.0 13.0 10.7 71 2.8 E 17 26 9 14 1024.6 1024.5 0.0
18/09:00pm 16.4 13.5 11.0 70 2.9 E 17 30 9 16 1024.5 1024.4 0.0
18/08:30pm 17.0 13.5 11.0 68 3.2 ESE 20 30 11 16 1024.5 1024.4 0.0
18/08:00pm 16.9 13.9 10.7 67 3.3 ESE 17 28 9 15 1024.4 1024.3 0.0
18/07:30pm 17.2 13.6 10.6 65 3.5 ESE 20 30 11 16 1024.4 1024.3 0.0
18/07:00pm 17.4 13.0 10.4 63 3.7 ESE 24 33 13 18 1024.3 1024.2 0.0
18/06:30pm 17.9 13.9 10.4 61 4.0 ESE 22 32 12 17 1024.0 1023.9 0.0
18/06:00pm 18.6 14.2 10.4 59 4.4 ESE 24 32 13 17 1023.7 1023.6 0.0
18/05:30pm 19.2 14.9 10.7 58 4.6 ESE 24 35 13 19 1023.7 1023.6 0.0
18/05:00pm 19.6 15.0 10.9 57 4.7 SE 26 37 14 20 1023.5 1023.4 0.0
18/04:30pm 20.1 15.0 10.5 54 5.2 SE 28 37 15 20 1023.4 1023.3 0.0
18/04:00pm 20.3 15.4 10.0 51 5.5 SE 26 33 14 18 1023.5 1023.4 0.0
18/03:30pm 20.5 15.5 10.8 53 5.3 SE 28 39 15 21 1023.6 1023.5 0.0
18/03:00pm 19.8 14.4 10.8 56 4.9 SE 30 37 16 20 1023.8 1023.7 0.0
18/02:30pm 19.9 14.0 10.4 54 5.1 SE 32 41 17 22 1024.1 1024.0 0.0
18/02:00pm 20.0 14.4 10.3 53 5.2 SE 30 39 16 21 1024.3 1024.2 0.0
18/01:30pm 20.9 15.5 10.8 52 5.5 SSE 30 39 16 21 1024.5 1024.4 0.0
18/01:00pm 20.2 15.0 10.4 53 5.3 SE 28 37 15 20 1024.8 1024.7 0.0
18/12:30pm 20.1 14.9 10.2 53 5.3 SSE 28 35 15 19 1024.9 1024.8 0.0
18/12:00pm 20.1 14.8 9.8 51 5.5 SSE 28 37 15 20 1025.1 1025.0 0.0
18/11:30am 20.0 15.2 10.3 53 5.2 SSE 26 33 14 18 1025.3 1025.2 0.0
18/11:00am 19.7 16.1 9.9 53 5.2 SE 19 28 10 15 1025.7 1025.6 0.0
18/10:30am 19.8 16.3 10.1 53 5.2 SSE 19 24 10 13 1026.1 1026.0 0.0
18/10:00am 19.7 16.6 10.4 55 5.0 SSE 17 24 9 13 1026.6 1026.5 0.0
18/09:30am 19.7 17.0 10.4 55 5.0 ESE 15 20 8 11 1026.7 1026.6 0.0
18/09:00am 18.4 15.6 9.9 57 4.5 SE 15 20 8 11 1026.7 1026.6 0.2
18/08:30am 18.2 15.7 9.6 57 4.5 SE 13 19 7 10 1026.7 1026.6 0.2
18/08:00am 17.6 16.7 10.7 64 3.7 NE 6 13 3 7 1026.6 1026.5 0.2
18/07:30am 16.1 15.5 11.6 74 2.4 NNE 6 7 3 4 1026.5 1026.4 0.2
18/07:00am 14.1 14.6 11.7 85 1.3 CALM 0 4 0 2 1026.2 1026.1 0.2
18/06:30am 12.9 12.1 11.0 88 1.0 NNW 6 6 3 3 1026.0 1025.9 0.2
18/06:00am 12.5 11.7 11.2 92 0.7 NNW 6 6 3 3 1025.7 1025.6 0.2
18/05:30am 12.5 12.0 10.8 89 0.9 N 4 6 2 3 1025.2 1025.1 0.2
18/05:00am 12.8 11.7 10.7 87 1.1 N 7 7 4 4 1025.0 1024.9 0.2
18/04:30am 12.8 11.8 11.1 89 0.9 N 7 9 4 5 1024.7 1024.6 0.2
18/04:00am 12.9 11.9 11.0 88 1.0 N 7 7 4 4 1024.6 1024.5 0.2
18/03:30am 13.3 12.4 11.2 87 1.1 N 7 7 4 4 1024.5 1024.4 0.2
18/03:00am 13.6 12.8 11.1 85 1.3 NNE 6 7 3 4 1024.4 1024.3 0.2
18/02:30am 14.0 13.2 11.8 86 1.2 NNE 7 7 4 4 1024.4 1024.3 0.2
18/02:00am 14.0 13.3 11.4 84 1.4 N 6 7 3 4 1024.4 1024.3 0.2
18/01:30am 14.2 13.2 11.0 81 1.7 NNE 7 9 4 5 1024.6 1024.5 0.2
18/01:00am 14.6 13.4 10.4 76 2.2 NE 7 9 4 5 1024.5 1024.4 0.2
18/12:30am 15.3 13.7 10.3 72 2.6 ENE 9 11 5 6 1024.6 1024.5 0.2
18/12:00am 16.7 14.2 9.6 63 3.7 ESE 13 17 7 9 1024.7 1024.6 0.2
 
Date/Time
WST
Temp
°C
App
Temp
°C
Dew
Point
°C
Rel
Hum
%
Delta-T
°C
Wind Press
QNH
hPa
Press
MSL
hPa
Rain since
9am
mm
Dir  Spd
km/h
Gust
km/h
Spd
kts
Gust
kts
17/11:30pm 16.6 13.7 9.5 63 3.7 SE 15 20 8 11 1024.8 1024.7 0.2
17/11:00pm 16.6 13.2 9.2 61 3.8 ESE 17 22 9 12 1024.8 1024.7 0.2
17/10:30pm 16.6 13.7 9.5 63 3.7 ESE 15 22 8 12 1024.8 1024.7 0.2
17/10:00pm 16.6 14.1 9.7 63 3.6 ESE 13 19 7 10 1024.8 1024.7 0.2
17/09:30pm 16.7 12.7 9.1 61 3.9 ESE 20 28 11 15 1024.8 1024.7 0.2
17/09:00pm 16.6 14.1 9.7 63 3.6 ESE 13 17 7 9 1024.7 1024.6 0.2
17/08:30pm 16.7 13.0 9.4 62 3.8 SE 19 24 10 13 1024.6 1024.5 0.2
17/08:00pm 16.8 13.1 9.5 62 3.8 SE 19 24 10 13 1024.5 1024.4 0.2
17/07:30pm 16.9 13.2 9.4 61 3.9 SE 19 24 10 13 1024.4 1024.3 0.2
17/07:00pm 16.9 13.5 9.2 60 4.0 SE 17 24 9 13 1024.1 1024.0 0.2

Other Formats:

Comma delimited format used in spreadsheet applications
http://www.bom.gov.au/fwo/IDW60801/IDW60801.94638.axf

JavaScript Object Notation format (JSON) in row-major order
http://www.bom.gov.au/fwo/IDW60801/IDW60801.94638.json